createdAt,value
2019-02-04T00:00:02.995Z,12.97
2019-02-04T00:02:30.384Z,11.23
2019-02-04T00:04:57.887Z,12.70
2019-02-04T00:07:25.232Z,12.43
2019-02-04T00:09:52.628Z,10.53
2019-02-04T00:12:19.996Z,10.87
2019-02-04T00:14:47.353Z,11.07
2019-02-04T00:17:14.752Z,12.63
2019-02-04T00:19:42.125Z,12.53
2019-02-04T00:22:09.685Z,12.47
2019-02-04T00:24:37.055Z,12.97
2019-02-04T00:27:04.429Z,11.63
2019-02-04T00:29:31.824Z,12.03
2019-02-04T00:31:59.221Z,11.37
2019-02-04T00:34:26.544Z,11.30
2019-02-04T00:36:54.233Z,11.93
2019-02-04T00:39:21.785Z,12.23
2019-02-04T00:41:49.165Z,13.60
2019-02-04T00:44:16.529Z,10.37
2019-02-04T00:46:52.067Z,10.73
2019-02-04T00:49:13.190Z,10.70
2019-02-04T00:51:40.545Z,12.67
2019-02-04T00:54:07.932Z,10.37
2019-02-04T00:56:35.545Z,12.50
2019-02-04T00:59:02.965Z,10.73
2019-02-04T01:01:30.361Z,9.03
2019-02-04T01:03:57.756Z,10.17
2019-02-04T01:06:25.112Z,11.50
2019-02-04T01:08:54.385Z,11.73
2019-02-04T01:11:21.768Z,11.07
2019-02-04T01:13:49.148Z,11.67
2019-02-04T01:16:16.531Z,10.97
2019-02-04T01:18:44.991Z,10.63
2019-02-04T01:21:12.330Z,10.93
2019-02-04T01:23:39.706Z,11.57
2019-02-04T01:26:07.064Z,10.60
2019-02-04T01:28:34.533Z,13.00
2019-02-04T01:31:01.923Z,14.03
2019-02-04T01:33:29.264Z,11.33
2019-02-04T01:35:56.647Z,12.73
2019-02-04T01:38:23.984Z,12.43
2019-02-04T01:40:51.384Z,10.70
2019-02-04T01:43:18.713Z,11.97
2019-02-04T01:45:46.173Z,12.07
2019-02-04T01:48:13.569Z,14.30
2019-02-04T01:50:40.980Z,14.50
2019-02-04T01:53:08.437Z,14.20
2019-02-04T01:55:35.773Z,12.73
2019-02-04T01:58:03.165Z,13.37
2019-02-04T02:00:35.177Z,13.93
2019-02-04T02:03:02.685Z,12.43
2019-02-04T02:05:30.327Z,11.83
2019-02-04T02:07:57.724Z,12.57
2019-02-04T02:10:25.769Z,15.27
2019-02-04T02:12:53.264Z,13.50
2019-02-04T02:15:20.746Z,13.37
2019-02-04T02:17:48.265Z,13.33
2019-02-04T02:20:18.549Z,12.30
2019-02-04T02:22:45.891Z,15.10
2019-02-04T02:25:13.417Z,16.10
2019-02-04T02:27:40.745Z,14.97
2019-02-04T02:30:12.174Z,14.80
2019-02-04T02:32:39.685Z,14.70
2019-02-04T02:35:07.664Z,17.17
2019-02-04T02:37:35.047Z,16.33
2019-02-04T02:40:03.768Z,13.97
2019-02-04T02:42:31.148Z,18.00
2019-02-04T02:44:58.570Z,18.83
2019-02-04T02:47:37.762Z,17.67
2019-02-04T02:49:56.050Z,16.33
2019-02-04T02:52:25.118Z,15.43
2019-02-04T02:54:52.594Z,16.07
2019-02-04T02:57:19.990Z,16.93
2019-02-04T02:59:47.368Z,17.90
2019-02-04T03:02:14.745Z,18.23
2019-02-04T03:04:42.166Z,17.23
2019-02-04T03:07:09.568Z,18.23
2019-02-04T03:09:36.973Z,19.03
2019-02-04T03:12:04.407Z,20.30
2019-02-04T03:14:31.801Z,16.07
2019-02-04T03:16:59.186Z,19.17
2019-02-04T03:19:26.565Z,18.93
2019-02-04T03:21:54.132Z,19.33
2019-02-04T03:24:21.810Z,18.53
2019-02-04T03:26:49.168Z,19.17
2019-02-04T03:29:16.569Z,21.27
2019-02-04T03:31:45.928Z,19.87
2019-02-04T03:34:13.219Z,22.23
2019-02-04T03:36:40.582Z,21.80
2019-02-04T03:39:08.219Z,22.50
2019-02-04T03:41:35.599Z,21.07
2019-02-04T03:44:03.530Z,19.70
2019-02-04T03:46:30.915Z,18.73
2019-02-04T03:48:58.317Z,15.73
2019-02-04T03:51:25.729Z,15.87
2019-02-04T03:53:53.109Z,17.13
2019-02-04T03:56:20.468Z,16.40
2019-02-04T03:58:47.857Z,18.07
2019-02-04T04:01:15.216Z,16.43
2019-02-04T04:03:42.618Z,15.73
2019-02-04T04:06:10.129Z,14.03
2019-02-04T04:08:37.477Z,15.13
2019-02-04T04:11:04.865Z,13.57
2019-02-04T04:13:32.289Z,15.23
2019-02-04T04:15:59.665Z,13.10
2019-02-04T04:18:28.309Z,15.63
2019-02-04T04:20:55.750Z,14.80
2019-02-04T04:23:23.109Z,15.97
2019-02-04T04:25:50.469Z,16.17
2019-02-04T04:28:17.969Z,15.57
2019-02-04T04:30:45.330Z,16.23
2019-02-04T04:33:12.713Z,18.57
2019-02-04T04:35:40.088Z,16.30
2019-02-04T04:38:07.489Z,15.40
2019-02-04T04:40:34.869Z,15.20
2019-02-04T04:43:02.251Z,16.20
2019-02-04T04:45:29.971Z,16.07
2019-02-04T04:47:57.349Z,15.00
2019-02-04T04:50:24.772Z,14.27
2019-02-04T04:52:52.269Z,15.97
2019-02-04T04:55:24.190Z,14.53
2019-02-04T04:57:51.569Z,15.17
2019-02-04T05:00:24.350Z,15.10
2019-02-04T05:02:51.677Z,14.83
2019-02-04T05:05:19.185Z,16.00
2019-02-04T05:07:46.627Z,14.23
2019-02-04T05:10:15.807Z,13.60
2019-02-04T05:12:43.183Z,14.23
2019-02-04T05:15:12.616Z,15.83
2019-02-04T05:17:40.055Z,13.67
2019-02-04T05:20:07.969Z,17.87
2019-02-04T05:22:35.376Z,14.83
2019-02-04T05:25:02.990Z,17.40
2019-02-04T05:27:32.451Z,17.53
2019-02-04T05:29:59.846Z,19.23
2019-02-04T05:32:27.329Z,17.60
2019-02-04T05:34:57.395Z,18.40
2019-02-04T05:37:24.005Z,19.63
2019-02-04T05:39:51.391Z,19.57
2019-02-04T05:42:19.191Z,18.50
2019-02-04T05:44:46.617Z,18.80
2019-02-04T05:47:13.942Z,19.73
2019-02-04T05:49:41.401Z,19.47
2019-02-04T05:52:08.853Z,17.47
2019-02-04T05:54:36.212Z,19.07
2019-02-04T05:57:03.574Z,16.90
2019-02-04T05:59:30.984Z,16.50
2019-02-04T06:01:58.371Z,17.53
2019-02-04T06:04:25.815Z,17.33
2019-02-04T06:06:53.341Z,17.27
2019-02-04T06:09:20.726Z,15.77
2019-02-04T06:11:48.155Z,15.03
2019-02-04T06:14:15.554Z,16.67
2019-02-04T06:16:42.945Z,17.93
2019-02-04T06:19:10.350Z,17.57
2019-02-04T06:21:37.731Z,15.50
2019-02-04T06:24:05.077Z,16.10
2019-02-04T06:26:32.471Z,20.00
2019-02-04T06:28:59.854Z,18.97
2019-02-04T06:31:27.236Z,17.60
2019-02-04T06:33:54.587Z,18.30
2019-02-04T06:36:22.025Z,17.33
2019-02-04T06:38:49.494Z,14.87
2019-02-04T06:41:16.930Z,19.57
2019-02-04T06:43:44.355Z,19.00
2019-02-04T06:46:11.731Z,21.03
2019-02-04T06:48:39.136Z,19.07
2019-02-04T06:51:06.469Z,19.73
2019-02-04T06:53:33.849Z,19.30
2019-02-04T06:56:01.240Z,17.80
2019-02-04T06:58:28.630Z,17.73
2019-02-04T07:00:56.009Z,18.10
2019-02-04T07:03:23.372Z,17.87
2019-02-04T07:05:50.769Z,19.37
2019-02-04T07:08:18.165Z,16.30
2019-02-04T07:10:45.545Z,19.03
2019-02-04T07:13:12.975Z,17.33
2019-02-04T07:15:40.468Z,16.23
2019-02-04T07:18:08.304Z,16.40
2019-02-04T07:20:35.685Z,18.07
2019-02-04T07:23:03.150Z,18.33
2019-02-04T07:25:30.506Z,17.60
2019-02-04T07:27:57.844Z,16.43
2019-02-04T07:30:25.989Z,15.70
2019-02-04T07:32:53.564Z,16.67
2019-02-04T07:35:21.081Z,17.37
2019-02-04T07:37:48.405Z,18.23
2019-02-04T07:40:18.834Z,16.80
2019-02-04T07:42:46.809Z,15.77
2019-02-04T07:45:14.685Z,18.70
2019-02-04T07:47:42.089Z,17.50
2019-02-04T07:50:09.716Z,21.43
2019-02-04T07:52:37.080Z,19.17
2019-02-04T07:55:04.625Z,19.73
2019-02-04T07:57:31.974Z,19.17
2019-02-04T07:59:59.389Z,17.90
2019-02-04T08:02:26.736Z,17.57
2019-02-04T08:04:54.113Z,19.90
2019-02-04T08:07:21.469Z,17.73
2019-02-04T08:09:49.435Z,17.80
2019-02-04T08:12:16.833Z,17.60
2019-02-04T08:14:45.304Z,18.67
2019-02-04T08:17:12.953Z,17.27
2019-02-04T08:19:47.358Z,15.07
2019-02-04T08:22:09.673Z,17.13
2019-02-04T08:24:37.046Z,18.53
2019-02-04T08:27:04.801Z,17.90
2019-02-04T08:29:32.521Z,17.30
2019-02-04T08:32:00.025Z,17.03
2019-02-04T08:34:27.839Z,15.80
2019-02-04T08:36:55.253Z,18.10
2019-02-04T08:39:22.769Z,20.20
2019-02-04T08:41:50.133Z,18.83
2019-02-04T08:44:17.530Z,17.07
2019-02-04T08:46:44.978Z,17.07
2019-02-04T08:49:12.338Z,17.73
2019-02-04T08:51:39.747Z,18.23
2019-02-04T08:54:07.151Z,17.17
2019-02-04T08:56:34.504Z,16.37
2019-02-04T08:59:02.097Z,15.30
2019-02-04T09:01:29.550Z,16.80
2019-02-04T09:03:56.969Z,17.23
2019-02-04T09:06:24.388Z,15.57
2019-02-04T09:08:51.786Z,16.77
2019-02-04T09:11:19.211Z,16.17
2019-02-04T09:13:46.606Z,15.33
2019-02-04T09:16:13.986Z,16.50
2019-02-04T09:18:44.846Z,12.17
2019-02-04T09:21:10.666Z,13.87
2019-02-04T09:23:38.053Z,13.87
2019-02-04T09:26:05.488Z,13.83
2019-02-04T09:28:32.891Z,14.87
2019-02-04T09:31:00.385Z,12.87
2019-02-04T09:33:27.755Z,13.47
2019-02-04T09:35:55.245Z,15.93
2019-02-04T09:38:22.622Z,19.00
2019-02-04T09:40:50.024Z,14.73
2019-02-04T09:43:17.421Z,14.07
2019-02-04T09:45:44.933Z,14.23
2019-02-04T09:48:17.948Z,12.90
2019-02-04T09:50:46.853Z,13.37
2019-02-04T09:53:14.347Z,12.97
2019-02-04T09:55:41.726Z,13.07
2019-02-04T09:58:09.144Z,13.57
2019-02-04T10:00:36.552Z,12.87
2019-02-04T10:03:04.826Z,12.43
2019-02-04T10:05:32.211Z,13.43
2019-02-04T10:07:59.886Z,11.37
2019-02-04T10:10:27.502Z,12.53
2019-02-04T10:12:54.920Z,11.70
2019-02-04T10:15:25.055Z,11.93
2019-02-04T10:17:52.451Z,12.23
2019-02-04T10:20:19.917Z,11.50
2019-02-04T10:22:47.405Z,11.47
2019-02-04T10:25:17.944Z,11.63
2019-02-04T10:27:45.774Z,13.13
2019-02-04T10:30:15.865Z,12.43
2019-02-04T10:32:44.407Z,11.30
2019-02-04T10:35:16.919Z,10.67
2019-02-04T10:37:41.527Z,11.53
2019-02-04T10:40:12.074Z,11.27
2019-02-04T10:42:39.522Z,11.63
2019-02-04T10:45:08.415Z,11.97
2019-02-04T10:47:35.879Z,12.90
2019-02-04T10:50:03.910Z,11.07
2019-02-04T10:52:31.252Z,11.47
2019-02-04T10:54:58.856Z,12.67
2019-02-04T10:57:26.374Z,11.00
2019-02-04T10:59:53.739Z,10.83
2019-02-04T11:02:21.125Z,10.57
2019-02-04T11:04:48.493Z,10.17
2019-02-04T11:07:15.933Z,11.60
2019-02-04T11:09:43.409Z,10.90
2019-02-04T11:12:11.118Z,10.57
2019-02-04T11:14:38.599Z,10.33
2019-02-04T11:17:05.984Z,11.30
2019-02-04T11:19:33.519Z,10.07
2019-02-04T11:22:01.046Z,9.70
2019-02-04T11:24:28.478Z,10.47
2019-02-04T11:26:56.590Z,9.40
2019-02-04T11:29:25.181Z,9.47
2019-02-04T11:31:53.134Z,9.70
2019-02-04T11:34:20.977Z,9.47
2019-02-04T11:36:48.925Z,9.70
2019-02-04T11:39:16.648Z,9.67
2019-02-04T11:41:44.048Z,8.13
2019-02-04T11:44:11.466Z,8.30
2019-02-04T11:46:39.063Z,8.23
2019-02-04T11:49:06.578Z,7.33
2019-02-04T11:51:33.961Z,8.30
2019-02-04T11:54:01.367Z,9.03
2019-02-04T11:56:28.745Z,8.53
2019-02-04T11:58:56.215Z,7.30
2019-02-04T12:01:23.918Z,6.63
2019-02-04T12:03:51.513Z,8.87
2019-02-04T12:06:18.915Z,7.03
2019-02-04T12:08:46.238Z,7.87
2019-02-04T12:11:19.394Z,7.93
2019-02-04T12:13:46.785Z,7.77
2019-02-04T12:16:14.582Z,8.13
2019-02-04T12:18:42.178Z,8.10
2019-02-04T12:21:20.041Z,7.43
2019-02-04T12:23:40.651Z,7.80
2019-02-04T12:26:08.186Z,6.93
2019-02-04T12:28:35.581Z,7.37
2019-02-04T12:31:03.048Z,6.73
2019-02-04T12:33:30.459Z,8.33
2019-02-04T12:35:57.955Z,7.80
2019-02-04T12:38:25.423Z,7.53
2019-02-04T12:40:52.830Z,6.77
2019-02-04T12:43:21.344Z,7.07
2019-02-04T12:45:49.138Z,6.47
2019-02-04T12:48:16.485Z,7.17
2019-02-04T12:50:44.053Z,7.07
2019-02-04T12:53:11.653Z,6.87
2019-02-04T12:55:39.011Z,6.73
2019-02-04T12:58:06.445Z,7.17
2019-02-04T13:00:33.925Z,6.63
2019-02-04T13:03:01.345Z,6.77
2019-02-04T13:05:34.166Z,5.73
2019-02-04T13:08:01.735Z,6.10
2019-02-04T13:10:29.227Z,6.57
2019-02-04T13:12:56.669Z,6.60
2019-02-04T13:15:24.745Z,6.40
2019-02-04T13:17:52.795Z,5.63
2019-02-04T13:20:20.386Z,6.37
2019-02-04T13:22:48.994Z,5.80
2019-02-04T13:25:18.955Z,6.20
2019-02-04T13:27:46.329Z,6.03
2019-02-04T13:30:15.229Z,6.73
2019-02-04T13:32:42.647Z,6.83
2019-02-04T13:35:10.349Z,6.67
2019-02-04T13:37:37.828Z,5.90
2019-02-04T13:40:07.225Z,5.90
2019-02-04T13:42:34.586Z,6.03
2019-02-04T13:45:01.987Z,5.67
2019-02-04T13:47:29.413Z,5.90
2019-02-04T13:49:56.786Z,5.43
2019-02-04T13:52:24.148Z,6.90
2019-02-04T13:54:51.566Z,5.83
2019-02-04T13:57:19.114Z,6.17
2019-02-04T13:59:46.536Z,5.20
2019-02-04T14:02:13.969Z,5.83
2019-02-04T14:04:41.401Z,5.70
2019-02-04T14:07:08.928Z,5.53
2019-02-04T14:09:36.345Z,5.10
2019-02-04T14:12:04.106Z,5.20
2019-02-04T14:14:31.641Z,5.00
2019-02-04T14:16:59.115Z,4.47
2019-02-04T14:19:26.573Z,4.80
2019-02-04T14:21:53.929Z,5.53
2019-02-04T14:24:21.448Z,4.60
2019-02-04T14:26:48.865Z,4.33
2019-02-04T14:29:16.772Z,5.23
2019-02-04T14:31:44.200Z,4.67
2019-02-04T14:34:11.759Z,4.37
2019-02-04T14:36:39.176Z,4.37
2019-02-04T14:39:10.832Z,5.13
2019-02-04T14:41:38.305Z,4.93
2019-02-04T14:44:17.747Z,4.87
2019-02-04T14:47:01.847Z,4.87
2019-02-04T14:49:55.749Z,4.30
2019-02-04T14:53:00.733Z,4.50
2019-02-04T14:56:19.460Z,4.50
2019-02-04T14:59:01.006Z,3.97
2019-02-04T15:01:59.460Z,4.10
2019-02-04T15:04:39.889Z,4.00
2019-02-04T15:07:36.815Z,3.87
2019-02-04T15:10:35.992Z,3.70
2019-02-04T15:13:47.818Z,4.03
2019-02-04T15:16:41.025Z,4.10
2019-02-04T15:19:46.453Z,4.17
2019-02-04T15:22:39.547Z,4.37
2019-02-04T15:25:47.243Z,4.50
2019-02-04T15:28:34.802Z,5.20
2019-02-04T15:31:43.205Z,3.97
2019-02-04T15:35:11.690Z,3.83
2019-02-04T15:38:03.020Z,4.17
2019-02-04T15:40:54.026Z,4.83
2019-02-04T15:44:21.758Z,4.17
2019-02-04T15:47:10.836Z,3.90
2019-02-04T15:50:09.842Z,4.20
2019-02-04T15:52:45.053Z,3.90
2019-02-04T15:55:11.561Z,3.80
2019-02-04T15:57:40.410Z,4.33
2019-02-04T16:00:09.489Z,4.90
2019-02-04T16:02:37.248Z,5.27
2019-02-04T16:05:06.126Z,3.70
2019-02-04T16:07:34.007Z,4.67
2019-02-04T16:10:01.968Z,3.90
2019-02-04T16:12:29.895Z,3.73
2019-02-04T16:14:57.707Z,4.00
2019-02-04T16:17:25.606Z,4.87
2019-02-04T16:19:53.601Z,6.17
2019-02-04T16:22:21.583Z,4.80
2019-02-04T16:24:49.775Z,4.93
2019-02-04T16:27:17.649Z,4.70
2019-02-04T16:29:45.509Z,4.70
2019-02-04T16:32:13.366Z,4.37
2019-02-04T16:34:41.325Z,4.37
2019-02-04T16:37:09.255Z,4.43
2019-02-04T16:39:37.165Z,4.23
2019-02-04T16:42:05.285Z,4.23
2019-02-04T16:44:33.286Z,4.73
2019-02-04T16:47:01.126Z,5.53
2019-02-04T16:49:29.108Z,3.90
2019-02-04T16:51:57.939Z,4.33
2019-02-04T16:54:25.947Z,3.97
2019-02-04T16:56:53.956Z,4.27
2019-02-04T16:59:21.906Z,4.77
2019-02-04T17:01:49.809Z,4.30
2019-02-04T17:04:17.885Z,4.70
2019-02-04T17:06:45.893Z,4.23
2019-02-04T17:09:13.708Z,4.10
2019-02-04T17:11:41.705Z,4.00
2019-02-04T17:14:09.625Z,4.53
2019-02-04T17:16:37.531Z,4.40
2019-02-04T17:19:05.418Z,3.87
2019-02-04T17:21:33.361Z,5.17
2019-02-04T17:24:02.368Z,4.33
2019-02-04T17:26:30.242Z,4.37
2019-02-04T17:28:59.883Z,4.23
2019-02-04T17:31:27.886Z,4.30
2019-02-04T17:33:55.999Z,3.93
2019-02-04T17:36:25.015Z,3.80
2019-02-04T17:38:53.303Z,3.83
2019-02-04T17:41:21.269Z,4.63
2019-02-04T17:43:49.723Z,3.90
2019-02-04T17:46:17.665Z,4.53
2019-02-04T17:48:45.559Z,4.40
2019-02-04T17:51:13.505Z,5.10
2019-02-04T17:53:41.323Z,5.20
2019-02-04T17:56:09.911Z,4.90
2019-02-04T17:58:37.866Z,4.93
2019-02-04T18:01:06.168Z,5.47
2019-02-04T18:03:34.263Z,5.53
2019-02-04T18:06:02.316Z,5.83
2019-02-04T18:08:30.295Z,7.90
2019-02-04T18:11:00.167Z,6.67
2019-02-04T18:13:28.458Z,5.37
2019-02-04T18:15:56.831Z,5.20
2019-02-04T18:18:26.128Z,5.10
2019-02-04T18:20:54.069Z,5.63
2019-02-04T18:23:22.045Z,5.10
2019-02-04T18:25:49.993Z,5.60
2019-02-04T18:28:17.786Z,11.00
2019-02-04T18:30:45.758Z,8.03
2019-02-04T18:33:13.735Z,12.47
2019-02-04T18:35:42.158Z,14.60
2019-02-04T18:38:10.121Z,8.03
2019-02-04T18:40:38.040Z,6.47
2019-02-04T18:43:06.024Z,6.17
2019-02-04T18:45:33.992Z,7.03
2019-02-04T18:48:01.973Z,5.97
2019-02-04T18:50:30.164Z,6.87
2019-02-04T18:52:58.099Z,7.17
2019-02-04T18:55:28.617Z,7.20
2019-02-04T18:57:56.551Z,6.90
2019-02-04T19:00:26.015Z,5.73
2019-02-04T19:02:54.225Z,9.67
2019-02-04T19:05:26.582Z,8.73
2019-02-04T19:07:53.364Z,7.97
2019-02-04T19:10:21.713Z,7.07
2019-02-04T19:12:49.703Z,7.47
2019-02-04T19:15:19.666Z,8.17
2019-02-04T19:17:48.185Z,8.73
2019-02-04T19:20:20.425Z,8.63
2019-02-04T19:22:48.417Z,8.77
2019-02-04T19:25:17.001Z,8.10
2019-02-04T19:27:45.031Z,7.63
2019-02-04T19:30:37.433Z,8.67
2019-02-04T19:33:05.424Z,7.70
2019-02-04T19:35:33.417Z,6.90
2019-02-04T19:38:01.714Z,8.47
2019-02-04T19:40:30.259Z,10.30
2019-02-04T19:42:58.300Z,5.67
2019-02-04T19:45:26.354Z,6.30
2019-02-04T19:47:54.381Z,4.53
2019-02-04T19:50:25.775Z,5.50
2019-02-04T19:52:53.748Z,10.77
2019-02-04T19:55:24.516Z,6.30
2019-02-04T19:57:55.044Z,7.73
2019-02-04T20:00:23.038Z,6.73
2019-02-04T20:02:50.978Z,6.80
2019-02-04T20:05:21.519Z,7.10
2019-02-04T20:07:51.709Z,6.47
2019-02-04T20:10:22.497Z,8.47
2019-02-04T20:12:50.748Z,7.07
2019-02-04T20:15:23.871Z,9.87
2019-02-04T20:17:51.814Z,10.07
2019-02-04T20:20:19.840Z,11.53
2019-02-04T20:22:47.766Z,10.93
2019-02-04T20:25:18.423Z,8.20
2019-02-04T20:27:46.388Z,9.30
2019-02-04T20:30:17.249Z,9.83
2019-02-04T20:32:45.231Z,10.77
2019-02-04T20:35:13.278Z,8.57
2019-02-04T20:37:41.794Z,9.00
2019-02-04T20:40:11.931Z,9.03
2019-02-04T20:42:39.869Z,8.97
2019-02-04T20:45:09.061Z,9.60
2019-02-04T20:47:38.297Z,6.80
2019-02-04T20:50:10.013Z,6.70
2019-02-04T20:52:37.919Z,6.93
2019-02-04T20:55:06.597Z,9.27
2019-02-04T20:57:34.447Z,10.20
2019-02-04T21:00:02.431Z,8.70
2019-02-04T21:02:30.420Z,9.70
2019-02-04T21:04:58.437Z,9.40
2019-02-04T21:07:26.431Z,8.37
2019-02-04T21:09:54.453Z,8.53
2019-02-04T21:12:22.447Z,9.07
2019-02-04T21:14:50.308Z,7.63
2019-02-04T21:17:18.191Z,8.43
2019-02-04T21:19:46.168Z,9.50
2019-02-04T21:22:14.133Z,8.97
2019-02-04T21:24:42.108Z,9.70
2019-02-04T21:27:10.210Z,9.13
2019-02-04T21:29:38.505Z,8.60
2019-02-04T21:32:06.486Z,7.63
2019-02-04T21:34:34.448Z,7.27
2019-02-04T21:37:02.410Z,6.73
2019-02-04T21:39:30.347Z,7.00
2019-02-04T21:41:58.577Z,9.73
2019-02-04T21:44:26.309Z,11.07
2019-02-04T21:46:55.157Z,11.13
2019-02-04T21:49:23.271Z,8.93
2019-02-04T21:51:51.238Z,10.00
2019-02-04T21:54:19.232Z,9.90
2019-02-04T21:56:47.469Z,9.70
2019-02-04T21:59:15.146Z,9.57
2019-02-04T22:01:42.794Z,8.13
2019-02-04T22:04:10.685Z,9.10
2019-02-04T22:06:38.359Z,8.07
2019-02-04T22:09:08.645Z,7.97
2019-02-04T22:11:36.397Z,7.27
2019-02-04T22:14:05.021Z,8.37
2019-02-04T22:16:32.526Z,7.37
2019-02-04T22:19:02.598Z,7.10
2019-02-04T22:21:30.167Z,7.60
2019-02-04T22:23:57.823Z,6.73
2019-02-04T22:26:25.195Z,7.43
2019-02-04T22:28:52.673Z,7.93
2019-02-04T22:31:20.052Z,8.57
2019-02-04T22:33:47.425Z,6.63
2019-02-04T22:36:14.832Z,6.30
2019-02-04T22:38:42.205Z,7.20
2019-02-04T22:41:09.985Z,6.43
2019-02-04T22:43:37.373Z,6.47
2019-02-04T22:46:05.060Z,6.07
2019-02-04T22:48:32.446Z,8.67
2019-02-04T22:50:59.828Z,7.13
2019-02-04T22:53:27.213Z,7.17
2019-02-04T22:55:54.606Z,6.37
2019-02-04T22:58:21.999Z,5.70
2019-02-04T23:01:18.389Z,4.27
2019-02-04T23:03:45.725Z,4.80
2019-02-04T23:06:13.125Z,5.27
2019-02-04T23:08:40.515Z,5.13
2019-02-04T23:11:07.876Z,4.57
2019-02-04T23:13:35.325Z,5.97
2019-02-04T23:16:02.864Z,4.97
2019-02-04T23:18:30.285Z,5.93
2019-02-04T23:20:57.669Z,4.33
2019-02-04T23:23:25.067Z,4.97
2019-02-04T23:25:52.427Z,4.13
2019-02-04T23:28:20.169Z,4.90
2019-02-04T23:30:47.612Z,5.37
2019-02-04T23:33:15.006Z,4.50
2019-02-04T23:35:42.485Z,4.73
2019-02-04T23:38:09.885Z,4.00
2019-02-04T23:40:37.405Z,3.50
2019-02-04T23:43:04.894Z,5.90
2019-02-04T23:45:32.266Z,5.13
2019-02-04T23:47:59.882Z,4.37
2019-02-04T23:50:27.274Z,4.30
2019-02-04T23:52:54.645Z,5.20
2019-02-04T23:55:22.033Z,3.90
2019-02-04T23:57:49.407Z,4.33
